Flugblogg on Facebook
Comments Box SVG iconsUsed for the like, share, comment, and reaction icons

1 day ago

Flugblogg

Pratham Mandloi fór sitt fyrsta einflug í dag á TF-TWO, vel gert! 💪🙌 See MoreSee Less

Comment on Facebook

full léttklæddur

Vel gert. Ég óska honum gæfu og gengis alla tíð.

Bravo Pratham 👏, Paresh Mandloi

3 days ago

Flugblogg

Winter has arrived in Reykjavik #BirkTogether with snowfall has arrived Eagle Air BAE JetStream 32 #TforA, captain Sigurdur Egill Sigurdsson performed the landing.BIRK 291700Z 06007KT 2100 SN VV009 M01/M02 Q1007 See MoreSee Less

Comment on Facebook

Looks like the Jetstream from Eagle Air

Jetstream

TF-ORA. My landing

4 days ago

Flugblogg

Photos from Keflavik International Airport’s post See MoreSee Less

Load more
Subscribe to be informed